Time,TemperatureF,DewpointF,PressureIn,WindDirection,WindDirectionDegrees,WindSpeedMPH,WindSpeedGustMPH,Humidity,HourlyPrecipIn,Conditions,Clouds,dailyrainin,SoftwareType,DateUTC
2013-05-05 00:00:00,37.5,35.4,30.36,West,266,0.0,0.0,92,0.00,,---,0.00,VWS V14.01,2013-05-05 04:00:00,
2013-05-05 00:01:00,37.5,35.7,30.36,West,266,0.0,0.0,93,0.00,,---,0.00,VWS V14.01,2013-05-05 04:01:00,
2013-05-05 00:06:00,37.4,35.0,30.36,West,266,0.0,0.0,91,0.00,,---,0.00,VWS V14.01,2013-05-05 04:06:00,
2013-05-05 00:11:00,37.0,34.6,30.36,West,266,0.0,0.0,91,0.00,,---,0.00,VWS V14.01,2013-05-05 04:11:00,
2013-05-05 00:16:00,37.1,35.0,30.36,West,265,0.0,0.0,92,0.00,,---,0.00,VWS V14.01,2013-05-05 04:16:00,
2013-05-05 00:21:00,36.9,34.8,30.36,West,266,0.0,0.0,92,0.00,,---,0.00,VWS V14.01,2013-05-05 04:21:00,
2013-05-05 00:26:00,36.8,34.7,30.36,West,266,0.0,0.0,92,0.00,,---,0.00,VWS V14.01,2013-05-05 04:26:00,
2013-05-05 00:30:00,36.6,34.5,30.36,West,265,0.0,0.0,92,0.00,,---,0.00,VWS V14.01,2013-05-05 04:30:00,
2013-05-05 00:31:00,36.6,34.5,30.36,West,265,0.0,0.0,92,0.00,,---,0.00,VWS V14.01,2013-05-05 04:31:00,
2013-05-05 00:36:00,36.6,34.5,30.36,West,266,0.0,0.0,92,0.00,,---,0.00,VWS V14.01,2013-05-05 04:36:00,
2013-05-05 00:41:00,36.5,34.4,30.36,West,266,0.0,0.0,92,0.00,,---,0.00,VWS V14.01,2013-05-05 04:41:00,
2013-05-05 00:46:00,36.3,34.2,30.36,West,265,0.0,0.0,92,0.00,,---,0.00,VWS V14.01,2013-05-05 04:46:00,
2013-05-05 00:51:00,36.1,34.0,30.36,West,266,0.0,0.0,92,0.00,,---,0.00,VWS V14.01,2013-05-05 04:51:00,
2013-05-05 00:56:00,36.3,34.5,30.36,West,266,0.0,0.0,93,0.00,,---,0.00,VWS V14.01,2013-05-05 04:56:00,
2013-05-05 01:00:00,36.5,34.7,30.36,West,266,0.0,0.0,93,0.00,,---,0.00,VWS V14.01,2013-05-05 05:00:00,
2013-05-05 01:01:00,36.5,34.7,30.36,West,266,0.0,0.0,93,0.00,,---,0.00,VWS V14.01,2013-05-05 05:01:00,
2013-05-05 01:06:00,36.5,34.7,30.36,West,266,0.0,0.0,93,0.00,,---,0.00,VWS V14.01,2013-05-05 05:06:00,
2013-05-05 01:11:00,36.7,34.9,30.35,West,266,0.0,0.0,93,0.00,,---,0.00,VWS V14.01,2013-05-05 05:11:00,
2013-05-05 01:16:00,37.2,35.4,30.35,West,265,0.0,0.0,93,0.00,,---,0.00,VWS V14.01,2013-05-05 05:16:00,
2013-05-05 01:21:00,37.5,35.4,30.35,West,266,0.0,0.0,92,0.00,,---,0.00,VWS V14.01,2013-05-05 05:21:00,
2013-05-05 01:26:00,37.8,35.4,30.35,West,266,0.0,0.0,91,0.00,,---,0.00,VWS V14.01,2013-05-05 05:26:00,
2013-05-05 01:30:00,37.8,35.1,30.35,West,266,0.0,0.0,90,0.00,,---,0.00,VWS V14.01,2013-05-05 05:30:00,
2013-05-05 01:31:00,37.8,35.1,30.35,West,266,0.0,0.0,90,0.00,,---,0.00,VWS V14.01,2013-05-05 05:31:00,
2013-05-05 01:36:00,37.6,34.9,30.35,West,265,0.0,0.0,90,0.00,,---,0.00,VWS V14.01,2013-05-05 05:36:00,
2013-05-05 01:41:00,37.6,34.9,30.34,West,266,0.0,0.0,90,0.00,,---,0.00,VWS V14.01,2013-05-05 05:41:00,
2013-05-05 01:46:00,37.7,34.8,30.34,West,266,0.0,0.0,89,0.00,,---,0.00,VWS V14.01,2013-05-05 05:46:00,
2013-05-05 01:51:00,37.9,35.0,30.34,West,266,0.0,0.0,89,0.00,,---,0.00,VWS V14.01,2013-05-05 05:51:00,
2013-05-05 01:56:00,38.1,34.9,30.34,West,265,0.0,0.0,88,0.00,,---,0.00,VWS V14.01,2013-05-05 05:56:00,
2013-05-05 02:00:00,38.4,34.9,30.34,West,266,0.0,0.0,87,0.00,,---,0.00,VWS V14.01,2013-05-05 06:00:00,
2013-05-05 02:01:00,38.4,34.9,30.34,West,265,0.0,0.0,87,0.00,,---,0.00,VWS V14.01,2013-05-05 06:01:00,
2013-05-05 02:06:00,38.8,35.0,30.34,West,266,0.0,0.0,86,0.00,,---,0.00,VWS V14.01,2013-05-05 06:06:00,
2013-05-05 02:11:00,38.9,34.8,30.34,West,266,0.0,0.0,85,0.00,,---,0.00,VWS V14.01,2013-05-05 06:11:00,
2013-05-05 02:16:00,38.9,34.8,30.34,West,265,0.0,0.0,85,0.00,,---,0.00,VWS V14.01,2013-05-05 06:16:00,
2013-05-05 02:21:00,39.0,34.6,30.33,West,266,0.0,0.0,84,0.00,,---,0.00,VWS V14.01,2013-05-05 06:21:00,
2013-05-05 02:26:00,38.7,34.3,30.33,West,266,0.0,0.0,84,0.00,,---,0.00,VWS V14.01,2013-05-05 06:26:00,
2013-05-05 02:30:00,38.4,34.0,30.33,West,266,0.0,0.0,84,0.00,,---,0.00,VWS V14.01,2013-05-05 06:30:00,
2013-05-05 02:31:00,38.4,34.0,30.33,West,265,0.0,0.0,84,0.00,,---,0.00,VWS V14.01,2013-05-05 06:31:00,
2013-05-05 02:36:00,38.0,33.9,30.33,West,266,0.0,0.0,85,0.00,,---,0.00,VWS V14.01,2013-05-05 06:36:00,
2013-05-05 02:41:00,37.6,33.8,30.33,West,266,0.0,0.0,86,0.00,,---,0.00,VWS V14.01,2013-05-05 06:41:00,
2013-05-05 02:46:00,37.4,33.9,30.33,West,266,0.0,0.0,87,0.00,,---,0.00,VWS V14.01,2013-05-05 06:46:00,
2013-05-05 02:51:00,37.2,33.7,30.34,West,266,0.0,0.0,87,0.00,,---,0.00,VWS V14.01,2013-05-05 06:51:00,
2013-05-05 02:56:00,36.7,33.2,30.33,West,266,0.0,0.0,87,0.00,,---,0.00,VWS V14.01,2013-05-05 06:56:00,
2013-05-05 03:00:00,36.2,33.0,30.33,West,266,0.0,0.0,88,0.00,,---,0.00,VWS V14.01,2013-05-05 07:00:00,
2013-05-05 03:01:00,36.3,33.1,30.34,West,266,0.0,0.0,88,0.00,,---,0.00,VWS V14.01,2013-05-05 07:01:00,
2013-05-05 03:06:00,35.7,32.8,30.34,West,265,0.0,0.0,89,0.00,,---,0.00,VWS V14.01,2013-05-05 07:06:00,
2013-05-05 03:11:00,35.4,32.8,30.33,West,266,0.0,0.0,90,0.00,,---,0.00,VWS V14.01,2013-05-05 07:11:00,
2013-05-05 03:16:00,35.1,32.5,30.33,West,265,0.0,0.0,90,0.00,,---,0.00,VWS V14.01,2013-05-05 07:16:00,
2013-05-05 03:21:00,34.8,32.5,30.33,West,266,0.0,0.0,91,0.00,,---,0.00,VWS V14.01,2013-05-05 07:21:00,
2013-05-05 03:26:00,34.6,32.2,30.33,West,265,0.0,0.0,91,0.00,,---,0.00,VWS V14.01,2013-05-05 07:26:00,
2013-05-05 03:30:00,34.6,32.5,30.33,West,266,0.0,0.0,92,0.00,,---,0.00,VWS V14.01,2013-05-05 07:30:00,
2013-05-05 03:31:00,34.5,32.4,30.33,West,265,0.0,0.0,92,0.00,,---,0.00,VWS V14.01,2013-05-05 07:31:00,
2013-05-05 03:36:00,34.4,32.3,30.33,West,266,0.0,0.0,92,0.00,,---,0.00,VWS V14.01,2013-05-05 07:36:00,
2013-05-05 03:41:00,34.2,32.1,30.33,West,266,0.0,0.0,92,0.00,,---,0.00,VWS V14.01,2013-05-05 07:41:00,
2013-05-05 03:46:00,34.0,31.9,30.33,West,266,0.0,0.0,92,0.00,,---,0.00,VWS V14.01,2013-05-05 07:46:00,
2013-05-05 03:51:00,34.1,32.3,30.33,West,265,0.0,0.0,93,0.00,,---,0.00,VWS V14.01,2013-05-05 07:51:00,
2013-05-05 03:56:00,34.1,32.3,30.33,West,266,0.0,0.0,93,0.00,,---,0.00,VWS V14.01,2013-05-05 07:56:00,
2013-05-05 04:00:00,34.2,32.7,30.33,West,265,0.0,0.0,94,0.00,,---,0.00,VWS V14.01,2013-05-05 08:00:00,
2013-05-05 04:01:00,34.2,32.7,30.33,West,266,0.0,0.0,94,0.00,,---,0.00,VWS V14.01,2013-05-05 08:01:00,
2013-05-05 04:06:00,34.5,33.2,30.33,West,266,0.0,0.0,95,0.00,,---,0.00,VWS V14.01,2013-05-05 08:06:00,
2013-05-05 04:11:00,34.4,32.6,30.33,West,265,0.0,0.0,93,0.00,,---,0.00,VWS V14.01,2013-05-05 08:11:00,
2013-05-05 04:16:00,34.1,32.3,30.33,West,266,0.0,0.0,93,0.00,,---,0.00,VWS V14.01,2013-05-05 08:16:00,
2013-05-05 04:21:00,33.8,32.0,30.33,West,266,0.0,0.0,93,0.00,,---,0.00,VWS V14.01,2013-05-05 08:21:00,
2013-05-05 04:26:00,33.8,32.3,30.34,West,265,0.0,0.0,94,0.00,,---,0.00,VWS V14.01,2013-05-05 08:26:00,
2013-05-05 04:30:00,34.0,32.7,30.34,West,265,0.0,0.0,95,0.00,,---,0.00,VWS V14.01,2013-05-05 08:30:00,
2013-05-05 04:31:00,34.0,32.5,30.34,West,266,0.0,0.0,94,0.00,,---,0.00,VWS V14.01,2013-05-05 08:31:00,
2013-05-05 04:36:00,34.1,32.8,30.34,West,266,0.0,0.0,95,0.00,,---,0.00,VWS V14.01,2013-05-05 08:36:00,
2013-05-05 04:41:00,34.1,32.6,30.34,West,266,0.0,0.0,94,0.00,,---,0.00,VWS V14.01,2013-05-05 08:41:00,
2013-05-05 04:45:00,34.1,32.6,30.34,West,266,0.0,0.0,94,0.00,,---,0.00,VWS V14.01,2013-05-05 08:45:00,
2013-05-05 04:50:00,34.1,32.6,30.34,West,266,0.0,0.0,94,0.00,,---,0.00,VWS V14.01,2013-05-05 08:50:00,
2013-05-05 04:55:00,33.9,32.4,30.34,West,265,0.0,0.0,94,0.00,,---,0.00,VWS V14.01,2013-05-05 08:55:00,
2013-05-05 05:00:00,33.7,32.2,30.34,West,266,0.0,0.0,94,0.00,,---,0.00,VWS V14.01,2013-05-05 09:00:00,
2013-05-05 05:05:00,33.4,31.9,30.34,West,266,0.0,0.0,94,0.00,,---,0.00,VWS V14.01,2013-05-05 09:05:00,
2013-05-05 05:10:00,33.3,31.8,30.34,West,266,0.0,0.0,94,0.00,,---,0.00,VWS V14.01,2013-05-05 09:10:00,
2013-05-05 05:15:00,33.2,31.9,30.34,West,266,0.0,0.0,95,0.00,,---,0.00,VWS V14.01,2013-05-05 09:15:00,
2013-05-05 05:20:00,33.0,31.5,30.34,West,266,0.0,0.0,94,0.00,,---,0.00,VWS V14.01,2013-05-05 09:20:00,
2013-05-05 05:25:00,32.8,31.3,30.34,West,266,0.0,0.0,94,0.00,,---,0.00,VWS V14.01,2013-05-05 09:25:00,
2013-05-05 05:30:00,32.8,31.5,30.34,West,266,0.0,0.0,95,0.00,,---,0.00,VWS V14.01,2013-05-05 09:30:00,
2013-05-05 05:35:00,32.9,31.6,30.34,West,266,0.0,0.0,95,0.00,,---,0.00,VWS V14.01,2013-05-05 09:35:00,
2013-05-05 05:41:00,33.4,32.1,30.34,West,266,0.0,0.0,95,0.00,,---,0.00,VWS V14.01,2013-05-05 09:41:00,
2013-05-05 05:46:00,33.9,32.6,30.34,West,266,0.0,0.0,95,0.00,,---,0.00,VWS V14.01,2013-05-05 09:46:00,
2013-05-05 05:51:00,34.5,33.2,30.34,West,266,0.0,0.0,95,0.00,,---,0.00,VWS V14.01,2013-05-05 09:51:00,
2013-05-05 05:56:00,35.4,34.1,30.34,West,266,0.0,0.0,95,0.00,,---,0.00,VWS V14.01,2013-05-05 09:56:00,
2013-05-05 06:00:00,35.9,34.3,30.34,West,266,0.0,0.0,94,0.00,,---,0.00,VWS V14.01,2013-05-05 10:00:00,
2013-05-05 06:01:00,35.9,34.3,30.34,West,266,0.0,0.0,94,0.00,,---,0.00,VWS V14.01,2013-05-05 10:01:00,
2013-05-05 06:06:00,36.5,34.9,30.34,West,266,0.0,0.0,94,0.00,,---,0.00,VWS V14.01,2013-05-05 10:06:00,
2013-05-05 06:11:00,37.9,36.6,30.34,West,266,0.0,0.0,95,0.00,,---,0.00,VWS V14.01,2013-05-05 10:11:00,
2013-05-05 06:15:00,39.3,37.7,30.35,West,265,0.0,0.0,94,0.00,,---,0.00,VWS V14.01,2013-05-05 10:15:00,
2013-05-05 06:20:00,39.5,37.4,30.34,West,266,0.0,0.0,92,0.00,,---,0.00,VWS V14.01,2013-05-05 10:20:00,
2013-05-05 06:25:00,40.7,38.3,30.34,West,266,0.0,0.0,91,0.00,,---,0.00,VWS V14.01,2013-05-05 10:25:00,
2013-05-05 06:30:00,42.3,39.3,30.34,West,265,0.0,0.0,89,0.00,,---,0.00,VWS V14.01,2013-05-05 10:30:00,
2013-05-05 06:35:00,43.8,38.7,30.34,West,266,0.0,0.0,82,0.00,,---,0.00,VWS V14.01,2013-05-05 10:35:00,
2013-05-05 06:40:00,44.7,39.5,30.34,West,266,0.0,0.0,82,0.00,,---,0.00,VWS V14.01,2013-05-05 10:40:00,
2013-05-05 06:45:00,46.6,39.8,30.34,West,266,0.0,0.0,77,0.00,,---,0.00,VWS V14.01,2013-05-05 10:45:00,
2013-05-05 06:50:00,46.8,39.3,30.34,West,266,0.0,0.0,75,0.00,,---,0.00,VWS V14.01,2013-05-05 10:50:00,
2013-05-05 06:55:00,47.1,39.6,30.34,West,266,0.0,0.0,75,0.00,,---,0.00,VWS V14.01,2013-05-05 10:55:00,
2013-05-05 07:00:00,47.2,39.0,30.34,West,266,0.0,0.0,73,0.00,,---,0.00,VWS V14.01,2013-05-05 11:00:00,
2013-05-05 07:05:00,47.5,40.3,30.34,North,3,0.0,0.0,76,0.00,,---,0.00,VWS V14.01,2013-05-05 11:05:00,
2013-05-05 07:10:00,48.0,38.7,30.34,WNW,283,0.0,1.0,70,0.00,,---,0.00,VWS V14.01,2013-05-05 11:10:00,
2013-05-05 07:15:00,48.4,39.4,30.34,North,10,0.0,2.0,71,0.00,,---,0.00,VWS V14.01,2013-05-05 11:15:00,
2013-05-05 07:20:00,49.1,40.5,30.34,North,353,0.0,2.0,72,0.00,,---,0.00,VWS V14.01,2013-05-05 11:20:00,
2013-05-05 07:25:00,49.9,39.0,30.34,SSW,193,0.0,2.0,66,0.00,,---,0.00,VWS V14.01,2013-05-05 11:25:00,
2013-05-05 07:30:00,50.5,40.0,30.34,NW,307,1.0,2.0,67,0.00,,---,0.00,VWS V14.01,2013-05-05 11:30:00,
2013-05-05 07:35:00,50.7,37.8,30.34,West,279,2.0,4.0,61,0.00,,---,0.00,VWS V14.01,2013-05-05 11:35:00,
2013-05-05 07:40:00,50.9,38.0,30.34,North,352,0.0,5.0,61,0.00,,---,0.00,VWS V14.01,2013-05-05 11:40:00,
2013-05-05 07:45:00,51.2,38.2,30.34,WSW,252,1.0,5.0,61,0.00,,---,0.00,VWS V14.01,2013-05-05 11:45:00,
2013-05-05 07:50:00,51.4,37.6,30.34,WSW,257,2.0,6.0,59,0.00,,---,0.00,VWS V14.01,2013-05-05 11:50:00,
2013-05-05 07:55:00,52.0,37.7,30.34,WNW,284,0.0,6.0,58,0.00,,---,0.00,VWS V14.01,2013-05-05 11:55:00,
2013-05-05 08:00:00,52.0,37.7,30.34,SW,217,1.0,6.0,58,0.00,,---,0.00,VWS V14.01,2013-05-05 12:00:00,
2013-05-05 08:05:00,52.1,37.8,30.34,West,268,3.0,5.0,58,0.00,,---,0.00,VWS V14.01,2013-05-05 12:05:00,
2013-05-05 08:10:00,52.3,37.5,30.35,WSW,257,3.0,6.0,57,0.00,,---,0.00,VWS V14.01,2013-05-05 12:10:00,
2013-05-05 08:15:00,52.6,38.3,30.35,West,277,3.0,6.0,58,0.00,,---,0.00,VWS V14.01,2013-05-05 12:15:00,
2013-05-05 08:20:00,52.5,37.7,30.35,SW,236,1.0,6.0,57,0.00,,---,0.00,VWS V14.01,2013-05-05 12:20:00,
2013-05-05 08:25:00,52.6,37.4,30.35,WNW,290,2.0,6.0,56,0.00,,---,0.00,VWS V14.01,2013-05-05 12:25:00,
2013-05-05 08:30:00,52.9,37.7,30.35,WNW,295,5.0,7.0,56,0.00,,---,0.00,VWS V14.01,2013-05-05 12:30:00,
2013-05-05 08:35:00,53.0,37.3,30.35,WNW,295,1.0,5.0,55,0.00,,---,0.00,VWS V14.01,2013-05-05 12:35:00,
2013-05-05 08:40:00,53.2,37.9,30.34,West,259,3.0,8.0,56,0.00,,---,0.00,VWS V14.01,2013-05-05 12:40:00,
2013-05-05 08:45:00,53.4,37.7,30.34,NW,319,2.0,8.0,55,0.00,,---,0.00,VWS V14.01,2013-05-05 12:45:00,
2013-05-05 08:50:00,53.5,37.8,30.34,NW,324,1.0,8.0,55,0.00,,---,0.00,VWS V14.01,2013-05-05 12:50:00,
2013-05-05 08:55:00,53.9,38.6,30.34,West,278,3.0,8.0,56,0.00,,---,0.00,VWS V14.01,2013-05-05 12:55:00,
2013-05-05 09:00:00,54.2,38.4,30.34,NW,316,1.0,8.0,55,0.00,,---,0.00,VWS V14.01,2013-05-05 13:00:00,
2013-05-05 09:05:00,54.4,38.1,30.34,West,262,1.0,3.0,54,0.00,,---,0.00,VWS V14.01,2013-05-05 13:05:00,
2013-05-05 09:10:00,54.8,38.0,30.34,SW,233,4.0,6.0,53,0.00,,---,0.00,VWS V14.01,2013-05-05 13:10:00,
2013-05-05 09:15:00,54.7,37.9,30.34,SSW,207,0.0,6.0,53,0.00,,---,0.00,VWS V14.01,2013-05-05 13:15:00,
2013-05-05 09:20:00,55.3,38.5,30.34,NW,316,2.0,6.0,53,0.00,,---,0.00,VWS V14.01,2013-05-05 13:20:00,
2013-05-05 09:25:00,54.8,37.5,30.34,NNW,342,5.0,7.0,52,0.00,,---,0.00,VWS V14.01,2013-05-05 13:25:00,
2013-05-05 09:30:00,55.0,38.7,30.34,NW,323,4.0,7.0,54,0.00,,---,0.00,VWS V14.01,2013-05-05 13:30:00,
2013-05-05 09:35:00,55.4,38.6,30.34,WSW,248,5.0,8.0,53,0.00,,---,0.00,VWS V14.01,2013-05-05 13:35:00,
2013-05-05 09:40:00,55.4,38.1,30.34,NW,305,3.0,8.0,52,0.00,,---,0.00,VWS V14.01,2013-05-05 13:40:00,
2013-05-05 09:45:00,55.2,37.9,30.34,NW,314,3.0,9.0,52,0.00,,---,0.00,VWS V14.01,2013-05-05 13:45:00,
2013-05-05 09:50:00,55.5,38.2,30.34,SSW,205,2.0,9.0,52,0.00,,---,0.00,VWS V14.01,2013-05-05 13:50:00,
2013-05-05 09:55:00,55.9,38.5,30.34,WSW,241,5.0,9.0,52,0.00,,---,0.00,VWS V14.01,2013-05-05 13:55:00,
2013-05-05 10:00:00,55.7,38.8,30.34,SW,229,3.0,9.0,53,0.00,,---,0.00,VWS V14.01,2013-05-05 14:00:00,
2013-05-05 10:05:00,55.7,38.4,30.34,SSE,162,6.0,8.0,52,0.00,,---,0.00,VWS V14.01,2013-05-05 14:05:00,
2013-05-05 10:10:00,55.5,38.7,30.34,South,188,1.0,9.0,53,0.00,,---,0.00,VWS V14.01,2013-05-05 14:10:00,
2013-05-05 10:15:00,55.6,38.8,30.34,South,181,0.0,9.0,53,0.00,,---,0.00,VWS V14.01,2013-05-05 14:15:00,
2013-05-05 10:20:00,55.4,38.1,30.33,South,173,2.0,9.0,52,0.00,,---,0.00,VWS V14.01,2013-05-05 14:20:00,
2013-05-05 10:25:00,54.9,38.1,30.33,WNW,283,5.0,10.0,53,0.00,,---,0.00,VWS V14.01,2013-05-05 14:25:00,
2013-05-05 10:30:00,55.6,38.8,30.33,South,177,2.0,10.0,53,0.00,,---,0.00,VWS V14.01,2013-05-05 14:30:00,
2013-05-05 10:35:00,55.7,37.9,30.33,SSE,152,1.0,8.0,51,0.00,,---,0.00,VWS V14.01,2013-05-05 14:35:00,
2013-05-05 10:40:00,55.9,38.5,30.33,WSW,247,2.0,8.0,52,0.00,,---,0.00,VWS V14.01,2013-05-05 14:40:00,
2013-05-05 10:45:00,56.5,39.1,30.33,WSW,240,4.0,8.0,52,0.00,,---,0.00,VWS V14.01,2013-05-05 14:45:00,
2013-05-05 10:50:00,56.7,38.3,30.33,SSE,155,0.0,9.0,50,0.00,,---,0.00,VWS V14.01,2013-05-05 14:50:00,
2013-05-05 10:55:00,57.2,39.2,30.33,West,259,2.0,9.0,51,0.00,,---,0.00,VWS V14.01,2013-05-05 14:55:00,
2013-05-05 11:00:00,56.9,38.0,30.33,SSW,203,8.0,9.0,49,0.00,,---,0.00,VWS V14.01,2013-05-05 15:00:00,
2013-05-05 11:05:00,56.5,38.6,30.33,SW,226,4.0,8.0,51,0.00,,---,0.00,VWS V14.01,2013-05-05 15:05:00,
2013-05-05 11:10:00,57.2,39.2,30.33,SW,218,4.0,8.0,51,0.00,,---,0.00,VWS V14.01,2013-05-05 15:10:00,
2013-05-05 11:15:00,56.7,38.3,30.33,South,185,3.0,10.0,50,0.00,,---,0.00,VWS V14.01,2013-05-05 15:15:00,
2013-05-05 11:20:00,57.3,39.3,30.33,SW,229,4.0,10.0,51,0.00,,---,0.00,VWS V14.01,2013-05-05 15:20:00,
2013-05-05 11:25:00,57.2,38.8,30.33,SW,233,3.0,10.0,50,0.00,,---,0.00,VWS V14.01,2013-05-05 15:25:00,
2013-05-05 11:30:00,56.9,38.0,30.33,SW,223,4.0,10.0,49,0.00,,---,0.00,VWS V14.01,2013-05-05 15:30:00,
2013-05-05 11:35:00,56.8,38.4,30.33,WSW,250,3.0,6.0,50,0.00,,---,0.00,VWS V14.01,2013-05-05 15:35:00,
2013-05-05 11:40:00,57.6,39.1,30.33,SSE,161,1.0,8.0,50,0.00,,---,0.00,VWS V14.01,2013-05-05 15:40:00,
2013-05-05 11:45:00,57.6,38.6,30.33,WSW,246,8.0,9.0,49,0.00,,---,0.00,VWS V14.01,2013-05-05 15:45:00,
2013-05-05 11:50:00,57.0,37.5,30.33,NW,308,2.0,10.0,48,0.00,,---,0.00,VWS V14.01,2013-05-05 15:50:00,
2013-05-05 11:55:00,57.0,38.6,30.33,SSE,163,0.0,10.0,50,0.00,,---,0.00,VWS V14.01,2013-05-05 15:55:00,
2013-05-05 12:00:00,57.7,39.2,30.32,West,259,4.0,10.0,50,0.00,,---,0.00,VWS V14.01,2013-05-05 16:00:00,
2013-05-05 12:05:00,58.5,38.9,30.33,SW,219,10.0,10.0,48,0.00,,---,0.00,VWS V14.01,2013-05-05 16:05:00,
2013-05-05 12:10:00,57.9,39.4,30.33,NNW,335,3.0,10.0,50,0.00,,---,0.00,VWS V14.01,2013-05-05 16:10:00,
2013-05-05 12:15:00,57.4,38.4,30.33,WSW,246,2.0,10.0,49,0.00,,---,0.00,VWS V14.01,2013-05-05 16:15:00,
2013-05-05 12:20:00,57.0,38.6,30.32,NW,312,1.0,10.0,50,0.00,,---,0.00,VWS V14.01,2013-05-05 16:20:00,
2013-05-05 12:25:00,57.6,39.1,30.33,SW,217,6.0,10.0,50,0.00,,---,0.00,VWS V14.01,2013-05-05 16:25:00,
2013-05-05 12:30:00,57.3,38.8,30.32,SE,146,1.0,10.0,50,0.00,,---,0.00,VWS V14.01,2013-05-05 16:30:00,
2013-05-05 12:35:00,56.7,38.3,30.32,WNW,284,3.0,13.0,50,0.00,,---,0.00,VWS V14.01,2013-05-05 16:35:00,
2013-05-05 12:40:00,57.2,39.8,30.32,NW,314,1.0,13.0,52,0.00,,---,0.00,VWS V14.01,2013-05-05 16:40:00,
2013-05-05 12:45:00,57.0,38.0,30.32,SSW,205,5.0,13.0,49,0.00,,---,0.00,VWS V14.01,2013-05-05 16:45:00,
2013-05-05 12:50:00,56.5,38.1,30.32,West,267,6.0,13.0,50,0.00,,---,0.00,VWS V14.01,2013-05-05 16:50:00,
2013-05-05 12:55:00,57.3,38.8,30.32,NW,321,2.0,13.0,50,0.00,,---,0.00,VWS V14.01,2013-05-05 16:55:00,
2013-05-05 13:00:00,57.8,38.8,30.32,WSW,248,4.0,13.0,49,0.00,,---,0.00,VWS V14.01,2013-05-05 17:00:00,
2013-05-05 13:05:00,57.5,38.0,30.32,South,188,4.0,9.0,48,0.00,,---,0.00,VWS V14.01,2013-05-05 17:05:00,
2013-05-05 13:10:00,56.8,38.4,30.32,SSW,198,0.0,11.0,50,0.00,,---,0.00,VWS V14.01,2013-05-05 17:10:00,
2013-05-05 13:15:00,57.0,39.1,30.32,SW,214,3.0,11.0,51,0.00,,---,0.00,VWS V14.01,2013-05-05 17:15:00,
2013-05-05 13:20:00,57.4,38.9,30.32,WNW,298,5.0,11.0,50,0.00,,---,0.00,VWS V14.01,2013-05-05 17:20:00,
2013-05-05 13:25:00,57.2,38.8,30.32,WSW,246,1.0,11.0,50,0.00,,---,0.00,VWS V14.01,2013-05-05 17:25:00,
2013-05-05 13:30:00,57.6,39.1,30.32,SW,229,3.0,11.0,50,0.00,,---,0.00,VWS V14.01,2013-05-05 17:30:00,
2013-05-05 13:35:00,58.3,39.2,30.32,WNW,288,1.0,6.0,49,0.00,,---,0.00,VWS V14.01,2013-05-05 17:35:00,
2013-05-05 13:40:00,57.6,39.1,30.32,NW,311,1.0,9.0,50,0.00,,---,0.00,VWS V14.01,2013-05-05 17:40:00,
2013-05-05 13:45:00,57.0,38.6,30.32,WSW,246,4.0,11.0,50,0.00,,---,0.00,VWS V14.01,2013-05-05 17:45:00,
2013-05-05 13:50:00,57.3,39.3,30.32,NW,314,1.0,11.0,51,0.00,,---,0.00,VWS V14.01,2013-05-05 17:50:00,
2013-05-05 13:55:00,57.5,39.5,30.32,NW,305,6.0,11.0,51,0.00,,---,0.00,VWS V14.01,2013-05-05 17:55:00,
2013-05-05 14:00:00,58.0,40.0,30.32,NE,44,1.0,11.0,51,0.00,,---,0.00,VWS V14.01,2013-05-05 18:00:00,
2013-05-05 14:05:00,58.0,40.0,30.32,WSW,245,3.0,8.0,51,0.00,,---,0.00,VWS V14.01,2013-05-05 18:05:00,
2013-05-05 14:10:00,58.3,40.3,30.32,North,10,2.0,8.0,51,0.00,,---,0.00,VWS V14.01,2013-05-05 18:10:00,
2013-05-05 14:15:00,58.3,40.3,30.32,NNE,12,0.0,8.0,51,0.00,,---,0.00,VWS V14.01,2013-05-05 18:15:00,
2013-05-05 14:20:00,58.3,39.8,30.32,West,281,5.0,8.0,50,0.00,,---,0.00,VWS V14.01,2013-05-05 18:20:00,
2013-05-05 14:24:00,58.2,40.2,30.32,SSW,194,1.0,9.0,51,0.00,,---,0.00,VWS V14.01,2013-05-05 18:24:00,
2013-05-05 14:29:00,57.9,39.4,30.32,SW,229,1.0,9.0,50,0.00,,---,0.00,VWS V14.01,2013-05-05 18:29:00,
2013-05-05 14:30:00,58.0,40.0,30.32,West,267,4.0,9.0,51,0.00,,---,0.00,VWS V14.01,2013-05-05 18:30:00,
2013-05-05 14:34:00,57.6,39.6,30.32,West,262,3.0,5.0,51,0.00,,---,0.00,VWS V14.01,2013-05-05 18:34:00,
2013-05-05 14:39:00,57.4,39.4,30.32,WNW,290,2.0,6.0,51,0.00,,---,0.00,VWS V14.01,2013-05-05 18:39:00,
2013-05-05 14:44:00,57.1,39.7,30.32,SW,232,1.0,10.0,52,0.00,,---,0.00,VWS V14.01,2013-05-05 18:44:00,
2013-05-05 14:49:00,56.5,39.1,30.32,SW,233,6.0,10.0,52,0.00,,---,0.00,VWS V14.01,2013-05-05 18:49:00,
2013-05-05 14:54:00,56.7,39.8,30.31,WSW,256,5.0,10.0,53,0.00,,---,0.00,VWS V14.01,2013-05-05 18:54:00,
2013-05-05 14:59:00,56.9,39.5,30.31,SW,216,3.0,10.0,52,0.00,,---,0.00,VWS V14.01,2013-05-05 18:59:00,
2013-05-05 15:00:00,56.7,39.3,30.31,SSW,197,5.0,10.0,52,0.00,,---,0.00,VWS V14.01,2013-05-05 19:00:00,
2013-05-05 15:04:00,56.5,39.6,30.31,SSW,207,2.0,9.0,53,0.00,,---,0.00,VWS V14.01,2013-05-05 19:04:00,
2013-05-05 15:09:00,57.2,39.8,30.31,West,260,0.0,9.0,52,0.00,,---,0.00,VWS V14.01,2013-05-05 19:09:00,
2013-05-05 15:14:00,56.5,39.1,30.31,WNW,283,1.0,9.0,52,0.00,,---,0.00,VWS V14.01,2013-05-05 19:14:00,
2013-05-05 15:19:00,55.8,38.9,30.31,South,183,6.0,12.0,53,0.00,,---,0.00,VWS V14.01,2013-05-05 19:19:00,
2013-05-05 15:24:00,55.0,38.7,30.31,West,260,9.0,12.0,54,0.00,,---,0.00,VWS V14.01,2013-05-05 19:24:00,
2013-05-05 15:29:00,55.1,39.7,30.31,SSW,192,0.0,12.0,56,0.00,,---,0.00,VWS V14.01,2013-05-05 19:29:00,
2013-05-05 15:30:00,55.4,39.5,30.31,WNW,298,5.0,12.0,55,0.00,,---,0.00,VWS V14.01,2013-05-05 19:30:00,
2013-05-05 15:34:00,55.0,38.7,30.31,WSW,245,6.0,10.0,54,0.00,,---,0.00,VWS V14.01,2013-05-05 19:34:00,
2013-05-05 15:39:00,54.5,39.1,30.31,West,271,3.0,10.0,56,0.00,,---,0.00,VWS V14.01,2013-05-05 19:39:00,
2013-05-05 15:44:00,54.7,39.3,30.31,West,259,3.0,11.0,56,0.00,,---,0.00,VWS V14.01,2013-05-05 19:44:00,
2013-05-05 15:49:00,55.2,39.3,30.31,WNW,294,7.0,11.0,55,0.00,,---,0.00,VWS V14.01,2013-05-05 19:49:00,
2013-05-05 15:54:00,55.3,39.9,30.31,West,271,4.0,11.0,56,0.00,,---,0.00,VWS V14.01,2013-05-05 19:54:00,
2013-05-05 15:59:00,55.3,39.4,30.31,SW,224,7.0,11.0,55,0.00,,---,0.00,VWS V14.01,2013-05-05 19:59:00,
2013-05-05 16:00:00,55.1,39.7,30.31,SW,214,4.0,11.0,56,0.00,,---,0.00,VWS V14.01,2013-05-05 20:00:00,
2013-05-05 16:04:00,55.0,39.6,30.31,South,191,3.0,8.0,56,0.00,,---,0.00,VWS V14.01,2013-05-05 20:04:00,
2013-05-05 16:09:00,54.9,40.0,30.31,WSW,248,4.0,10.0,57,0.00,,---,0.00,VWS V14.01,2013-05-05 20:09:00,
2013-05-05 16:14:00,55.0,39.6,30.30,NW,317,4.0,10.0,56,0.00,,---,0.00,VWS V14.01,2013-05-05 20:14:00,
2013-05-05 16:19:00,54.4,39.5,30.30,SW,236,4.0,11.0,57,0.00,,---,0.00,VWS V14.01,2013-05-05 20:19:00,
2013-05-05 16:24:00,54.1,39.2,30.30,SSW,212,0.0,11.0,57,0.00,,---,0.00,VWS V14.01,2013-05-05 20:24:00,
2013-05-05 16:29:00,53.8,39.4,30.30,West,276,5.0,11.0,58,0.00,,---,0.00,VWS V14.01,2013-05-05 20:29:00,
2013-05-05 16:30:00,53.8,39.4,30.30,WSW,247,2.0,11.0,58,0.00,,---,0.00,VWS V14.01,2013-05-05 20:30:00,
2013-05-05 16:34:00,53.8,39.4,30.30,West,281,1.0,9.0,58,0.00,,---,0.00,VWS V14.01,2013-05-05 20:34:00,
2013-05-05 16:39:00,54.0,39.6,30.30,NE,34,0.0,9.0,58,0.00,,---,0.00,VWS V14.01,2013-05-05 20:39:00,
2013-05-05 16:44:00,54.5,39.6,30.30,SSE,152,1.0,9.0,57,0.00,,---,0.00,VWS V14.01,2013-05-05 20:44:00,
2013-05-05 16:49:00,54.4,39.0,30.30,WNW,286,2.0,10.0,56,0.00,,---,0.00,VWS V14.01,2013-05-05 20:49:00,
2013-05-05 16:54:00,53.9,39.0,30.30,WNW,284,7.0,10.0,57,0.00,,---,0.00,VWS V14.01,2013-05-05 20:54:00,
2013-05-05 16:59:00,53.7,38.8,30.30,South,187,5.0,10.0,57,0.00,,---,0.00,VWS V14.01,2013-05-05 20:59:00,
2013-05-05 17:00:00,53.4,38.6,30.30,WSW,250,4.0,13.0,57,0.00,,---,0.00,VWS V14.01,2013-05-05 21:00:00,
2013-05-05 17:04:00,53.1,38.7,30.30,NNW,329,2.0,9.0,58,0.00,,---,0.00,VWS V14.01,2013-05-05 21:04:00,
2013-05-05 17:09:00,52.9,39.0,30.30,SW,236,4.0,11.0,59,0.00,,---,0.00,VWS V14.01,2013-05-05 21:09:00,
2013-05-05 17:14:00,52.6,38.7,30.30,East,96,0.0,11.0,59,0.00,,---,0.00,VWS V14.01,2013-05-05 21:14:00,
2013-05-05 17:19:00,52.8,38.9,30.30,WSW,245,4.0,11.0,59,0.00,,---,0.00,VWS V14.01,2013-05-05 21:19:00,
2013-05-05 17:24:00,52.3,38.8,30.30,SSW,203,6.0,11.0,60,0.00,,---,0.00,VWS V14.01,2013-05-05 21:24:00,
2013-05-05 17:29:00,52.1,39.1,30.30,South,184,6.0,14.0,61,0.00,,---,0.00,VWS V14.01,2013-05-05 21:29:00,
2013-05-05 17:30:00,52.2,39.2,30.30,WSW,246,3.0,14.0,61,0.00,,---,0.00,VWS V14.01,2013-05-05 21:30:00,
2013-05-05 17:34:00,52.3,39.3,30.30,SSW,210,2.0,3.0,61,0.00,,---,0.00,VWS V14.01,2013-05-05 21:34:00,
2013-05-05 17:39:00,52.2,39.2,30.30,WNW,284,1.0,9.0,61,0.00,,---,0.00,VWS V14.01,2013-05-05 21:39:00,
2013-05-05 17:44:00,52.3,39.3,30.30,SSW,201,0.0,9.0,61,0.00,,---,0.00,VWS V14.01,2013-05-05 21:44:00,
2013-05-05 17:49:00,52.6,39.5,30.30,West,271,0.0,9.0,61,0.00,,---,0.00,VWS V14.01,2013-05-05 21:49:00,
2013-05-05 17:54:00,52.3,39.3,30.30,NNW,343,1.0,9.0,61,0.00,,---,0.00,VWS V14.01,2013-05-05 21:54:00,
2013-05-05 17:59:00,52.1,39.5,30.30,WSW,240,0.0,9.0,62,0.00,,---,0.00,VWS V14.01,2013-05-05 21:59:00,
2013-05-05 18:00:00,52.1,39.5,30.29,West,269,2.0,9.0,62,0.00,,---,0.00,VWS V14.01,2013-05-05 22:00:00,
2013-05-05 18:04:00,52.0,39.4,30.29,NW,305,1.0,8.0,62,0.00,,---,0.00,VWS V14.01,2013-05-05 22:04:00,
2013-05-05 18:09:00,51.8,39.2,30.29,WNW,283,3.0,8.0,62,0.00,,---,0.00,VWS V14.01,2013-05-05 22:09:00,
2013-05-05 18:14:00,51.5,39.3,30.30,SW,214,6.0,8.0,63,0.00,,---,0.00,VWS V14.01,2013-05-05 22:14:00,
2013-05-05 18:19:00,51.3,39.2,30.29,SW,231,3.0,8.0,63,0.00,,---,0.00,VWS V14.01,2013-05-05 22:19:00,
2013-05-05 18:24:00,51.1,39.4,30.30,SW,222,4.0,8.0,64,0.00,,---,0.00,VWS V14.01,2013-05-05 22:24:00,
2013-05-05 18:29:00,50.7,39.4,30.29,NW,319,0.0,8.0,65,0.00,,---,0.00,VWS V14.01,2013-05-05 22:29:00,
2013-05-05 18:30:00,50.6,39.3,30.29,SSW,207,0.0,8.0,65,0.00,,---,0.00,VWS V14.01,2013-05-05 22:30:00,
2013-05-05 18:34:00,50.5,39.2,30.29,SW,216,0.0,1.0,65,0.00,,---,0.00,VWS V14.01,2013-05-05 22:34:00,
2013-05-05 18:39:00,50.2,39.3,30.30,SW,229,4.0,6.0,66,0.00,,---,0.00,VWS V14.01,2013-05-05 22:39:00,
2013-05-05 18:44:00,49.7,39.2,30.30,SW,217,3.0,6.0,67,0.00,,---,0.00,VWS V14.01,2013-05-05 22:44:00,
2013-05-05 18:49:00,49.5,39.4,30.30,WSW,257,1.0,6.0,68,0.00,,---,0.00,VWS V14.01,2013-05-05 22:49:00,
2013-05-05 18:54:00,48.9,38.8,30.30,WSW,250,1.0,6.0,68,0.00,,---,0.00,VWS V14.01,2013-05-05 22:54:00,
2013-05-05 18:59:00,48.5,39.2,30.30,WSW,256,1.0,6.0,70,0.00,,---,0.00,VWS V14.01,2013-05-05 22:59:00,
2013-05-05 19:00:00,48.3,39.0,30.30,SSW,199,2.0,6.0,70,0.00,,---,0.00,VWS V14.01,2013-05-05 23:00:00,
2013-05-05 19:04:00,48.0,38.7,30.30,SSW,192,1.0,5.0,70,0.00,,---,0.00,VWS V14.01,2013-05-05 23:04:00,
2013-05-05 19:09:00,47.6,39.0,30.30,SSW,212,0.0,5.0,72,0.00,,---,0.00,VWS V14.01,2013-05-05 23:09:00,
2013-05-05 19:14:00,47.3,38.7,30.30,SW,232,2.0,5.0,72,0.00,,---,0.00,VWS V14.01,2013-05-05 23:14:00,
2013-05-05 19:19:00,46.9,38.7,30.30,WSW,250,0.0,5.0,73,0.00,,---,0.00,VWS V14.01,2013-05-05 23:19:00,
2013-05-05 19:24:00,46.6,38.8,30.30,WSW,240,0.0,5.0,74,0.00,,---,0.00,VWS V14.01,2013-05-05 23:24:00,
2013-05-05 19:29:00,46.1,38.6,30.30,SW,217,3.0,5.0,75,0.00,,---,0.00,VWS V14.01,2013-05-05 23:29:00,
2013-05-05 19:30:00,46.0,38.9,30.30,SSW,212,0.0,5.0,76,0.00,,---,0.00,VWS V14.01,2013-05-05 23:30:00,
2013-05-05 19:34:00,45.8,38.7,30.30,SSW,205,0.0,1.0,76,0.00,,---,0.00,VWS V14.01,2013-05-05 23:34:00,
2013-05-05 19:39:00,45.5,38.7,30.30,SW,229,0.0,3.0,77,0.00,,---,0.00,VWS V14.01,2013-05-05 23:39:00,
2013-05-05 19:44:00,45.1,38.7,30.29,SE,134,0.0,3.0,78,0.00,,---,0.00,VWS V14.01,2013-05-05 23:44:00,
2013-05-05 19:49:00,44.7,38.9,30.29,SW,223,0.0,3.0,80,0.00,,---,0.00,VWS V14.01,2013-05-05 23:49:00,
2013-05-05 19:54:00,44.2,38.8,30.29,SW,224,0.0,3.0,81,0.00,,---,0.00,VWS V14.01,2013-05-05 23:54:00,
2013-05-05 19:59:00,43.8,38.7,30.29,SW,223,0.0,3.0,82,0.00,,---,0.00,VWS V14.01,2013-05-05 23:59:00,
2013-05-05 20:00:00,43.6,38.5,30.29,SW,223,0.0,3.0,82,0.00,,---,0.00,VWS V14.01,2013-05-06 00:00:00,
2013-05-05 20:04:00,43.3,38.2,30.30,SW,224,0.0,0.0,82,0.00,,---,0.00,VWS V14.01,2013-05-06 00:04:00,
2013-05-05 20:09:00,42.9,38.1,30.29,SW,224,0.0,0.0,83,0.00,,---,0.00,VWS V14.01,2013-05-06 00:09:00,
2013-05-05 20:14:00,42.7,38.5,30.30,SW,223,0.0,0.0,85,0.00,,---,0.00,VWS V14.01,2013-05-06 00:14:00,
2013-05-05 20:19:00,42.4,38.2,30.30,SW,223,0.0,0.0,85,0.00,,---,0.00,VWS V14.01,2013-05-06 00:19:00,
2013-05-05 20:24:00,42.1,38.2,30.30,SW,224,0.0,0.0,86,0.00,,---,0.00,VWS V14.01,2013-05-06 00:24:00,
2013-05-05 20:29:00,41.8,37.9,30.29,SW,224,0.0,0.0,86,0.00,,---,0.00,VWS V14.01,2013-05-06 00:29:00,
2013-05-05 20:30:00,41.5,37.6,30.29,SW,224,0.0,0.0,86,0.00,,---,0.00,VWS V14.01,2013-05-06 00:30:00,
2013-05-05 20:34:00,41.3,37.4,30.30,SW,224,0.0,0.0,86,0.00,,---,0.00,VWS V14.01,2013-05-06 00:34:00,
2013-05-05 20:39:00,41.0,37.4,30.30,SW,223,0.0,0.0,87,0.00,,---,0.00,VWS V14.01,2013-05-06 00:39:00,
2013-05-05 20:44:00,40.8,37.5,30.30,SW,224,0.0,0.0,88,0.00,,---,0.00,VWS V14.01,2013-05-06 00:44:00,
2013-05-05 20:49:00,40.7,37.7,30.30,SW,224,0.0,0.0,89,0.00,,---,0.00,VWS V14.01,2013-05-06 00:49:00,
2013-05-05 20:54:00,40.2,37.2,30.30,SW,224,0.0,0.0,89,0.00,,---,0.00,VWS V14.01,2013-05-06 00:54:00,
2013-05-05 20:59:00,39.9,37.2,30.30,SW,224,0.0,0.0,90,0.00,,---,0.00,VWS V14.01,2013-05-06 00:59:00,
2013-05-05 21:00:00,39.7,36.7,30.30,SW,224,0.0,0.0,89,0.00,,---,0.00,VWS V14.01,2013-05-06 01:00:00,
2013-05-05 21:04:00,39.5,36.5,30.30,SW,223,0.0,0.0,89,0.00,,---,0.00,VWS V14.01,2013-05-06 01:04:00,
2013-05-05 21:09:00,39.2,36.5,30.30,SW,224,0.0,0.0,90,0.00,,---,0.00,VWS V14.01,2013-05-06 01:09:00,
2013-05-05 21:14:00,39.0,36.6,30.30,SW,224,0.0,0.0,91,0.00,,---,0.00,VWS V14.01,2013-05-06 01:14:00,
2013-05-05 21:19:00,38.7,36.3,30.30,SW,224,0.0,0.0,91,0.00,,---,0.00,VWS V14.01,2013-05-06 01:19:00,
2013-05-05 21:24:00,38.5,36.4,30.30,SW,224,0.0,0.0,92,0.00,,---,0.00,VWS V14.01,2013-05-06 01:24:00,
2013-05-05 21:29:00,38.3,36.2,30.30,SW,224,0.0,0.0,92,0.00,,---,0.00,VWS V14.01,2013-05-06 01:29:00,
2013-05-05 21:30:00,38.2,36.1,30.30,SW,223,0.0,0.0,92,0.00,,---,0.00,VWS V14.01,2013-05-06 01:30:00,
2013-05-05 21:34:00,38.0,35.9,30.30,SW,224,0.0,0.0,92,0.00,,---,0.00,VWS V14.01,2013-05-06 01:34:00,
2013-05-05 21:39:00,37.9,35.8,30.30,SW,223,0.0,0.0,92,0.00,,---,0.00,VWS V14.01,2013-05-06 01:39:00,
2013-05-05 21:44:00,38.0,36.2,30.30,SW,224,0.0,0.0,93,0.00,,---,0.00,VWS V14.01,2013-05-06 01:44:00,
2013-05-05 21:49:00,38.3,36.7,30.30,WSW,256,0.0,1.0,94,0.00,,---,0.00,VWS V14.01,2013-05-06 01:49:00,
2013-05-05 21:54:00,38.5,36.7,30.30,West,273,0.0,1.0,93,0.00,,---,0.00,VWS V14.01,2013-05-06 01:54:00,
2013-05-05 21:59:00,38.7,36.8,30.30,West,264,0.0,2.0,93,0.00,,---,0.00,VWS V14.01,2013-05-06 01:59:00,
2013-05-05 22:00:00,38.8,37.0,30.30,West,264,0.0,2.0,93,0.00,,---,0.00,VWS V14.01,2013-05-06 02:00:00,
2013-05-05 22:04:00,38.9,37.0,30.30,West,264,0.0,0.0,93,0.00,,---,0.00,VWS V14.01,2013-05-06 02:04:00,
2013-05-05 22:09:00,38.9,37.0,30.30,West,264,0.0,0.0,93,0.00,,---,0.00,VWS V14.01,2013-05-06 02:09:00,
2013-05-05 22:14:00,38.6,36.5,30.30,West,264,0.0,0.0,92,0.00,,---,0.00,VWS V14.01,2013-05-06 02:14:00,
2013-05-05 22:19:00,38.3,36.2,30.30,West,264,0.0,0.0,92,0.00,,---,0.00,VWS V14.01,2013-05-06 02:19:00,
2013-05-05 22:24:00,37.7,35.6,30.30,West,264,0.0,0.0,92,0.00,,---,0.00,VWS V14.01,2013-05-06 02:24:00,
2013-05-05 22:29:00,37.3,35.2,30.30,West,264,0.0,0.0,92,0.00,,---,0.00,VWS V14.01,2013-05-06 02:29:00,
2013-05-05 22:30:00,37.1,35.0,30.30,West,264,0.0,0.0,92,0.00,,---,0.00,VWS V14.01,2013-05-06 02:30:00,
2013-05-05 22:34:00,36.9,35.1,30.30,West,264,0.0,0.0,93,0.00,,---,0.00,VWS V14.01,2013-05-06 02:34:00,
2013-05-05 22:39:00,36.7,34.9,30.30,West,264,0.0,0.0,93,0.00,,---,0.00,VWS V14.01,2013-05-06 02:39:00,
2013-05-05 22:44:00,36.5,34.9,30.30,West,264,0.0,0.0,94,0.00,,---,0.00,VWS V14.01,2013-05-06 02:44:00,
2013-05-05 22:49:00,36.5,34.9,30.30,West,264,0.0,0.0,94,0.00,,---,0.00,VWS V14.01,2013-05-06 02:49:00,
2013-05-05 22:54:00,36.5,34.9,30.30,West,264,0.0,0.0,94,0.00,,---,0.00,VWS V14.01,2013-05-06 02:54:00,
2013-05-05 22:59:00,36.6,35.3,30.31,West,264,0.0,0.0,95,0.00,,---,0.00,VWS V14.01,2013-05-06 02:59:00,
2013-05-05 23:00:00,36.8,35.5,30.31,West,264,0.0,0.0,95,0.00,,---,0.00,VWS V14.01,2013-05-06 03:00:00,
2013-05-05 23:04:00,36.8,35.5,30.31,West,264,0.0,0.0,95,0.00,,---,0.00,VWS V14.01,2013-05-06 03:04:00,
2013-05-05 23:09:00,37.1,36.1,30.31,West,264,0.0,0.0,96,0.00,,---,0.00,VWS V14.01,2013-05-06 03:09:00,
2013-05-05 23:14:00,37.7,36.7,30.31,West,269,0.0,0.0,96,0.00,,---,0.00,VWS V14.01,2013-05-06 03:14:00,
2013-05-05 23:18:00,38.0,37.0,30.31,West,269,0.0,0.0,96,0.00,,---,0.00,VWS V14.01,2013-05-06 03:18:00,
2013-05-05 23:23:00,38.0,36.7,30.31,West,269,0.0,0.0,95,0.00,,---,0.00,VWS V14.01,2013-05-06 03:23:00,
2013-05-05 23:28:00,37.7,36.1,30.31,West,270,0.0,0.0,94,0.00,,---,0.00,VWS V14.01,2013-05-06 03:28:00,
2013-05-05 23:30:00,37.6,36.3,30.31,West,270,0.0,0.0,95,0.00,,---,0.00,VWS V14.01,2013-05-06 03:30:00,
2013-05-05 23:33:00,37.6,36.3,30.31,West,270,0.0,0.0,95,0.00,,---,0.00,VWS V14.01,2013-05-06 03:33:00,
2013-05-05 23:38:00,37.2,35.6,30.31,West,270,0.0,0.0,94,0.00,,---,0.00,VWS V14.01,2013-05-06 03:38:00,
2013-05-05 23:43:00,37.0,35.7,30.31,West,269,0.0,0.0,95,0.00,,---,0.00,VWS V14.01,2013-05-06 03:43:00,
2013-05-05 23:48:00,36.7,35.4,30.31,West,270,0.0,0.0,95,0.00,,---,0.00,VWS V14.01,2013-05-06 03:48:00,
2013-05-05 23:53:00,36.6,35.3,30.31,West,270,0.0,0.0,95,0.00,,---,0.00,VWS V14.01,2013-05-06 03:53:00,
2013-05-05 23:58:00,36.4,35.1,30.31,West,269,0.0,0.0,95,0.00,,---,0.00,VWS V14.01,2013-05-06 03:58:00,